createdAt,value
2018-02-11T00:02:19.499Z,82.60
2018-02-11T00:04:46.971Z,82.60
2018-02-11T00:07:14.438Z,82.80
2018-02-11T00:09:41.903Z,82.50
2018-02-11T00:12:09.365Z,83.00
2018-02-11T00:14:36.844Z,82.90
2018-02-11T00:17:04.343Z,82.90
2018-02-11T00:19:31.810Z,82.90
2018-02-11T00:21:59.263Z,83.00
2018-02-11T00:24:26.736Z,83.10
2018-02-11T00:26:54.199Z,83.20
2018-02-11T00:29:21.686Z,83.20
2018-02-11T00:31:49.141Z,83.30
2018-02-11T00:34:16.618Z,83.50
2018-02-11T00:36:49.746Z,83.60
2018-02-11T00:39:17.209Z,83.60
2018-02-11T00:41:45.438Z,83.40
2018-02-11T00:44:12.921Z,83.40
2018-02-11T00:46:40.380Z,83.70
2018-02-11T00:49:07.854Z,83.80
2018-02-11T00:51:35.313Z,83.80
2018-02-11T00:54:02.778Z,84.00
2018-02-11T00:56:30.236Z,84.10
2018-02-11T00:58:57.716Z,84.00
2018-02-11T01:01:25.178Z,84.20
2018-02-11T01:03:52.648Z,84.40
2018-02-11T01:06:20.100Z,84.50
2018-02-11T01:08:47.590Z,84.50
2018-02-11T01:11:15.814Z,84.50
2018-02-11T01:13:43.287Z,84.50
2018-02-11T01:16:10.744Z,84.70
2018-02-11T01:18:38.221Z,84.70
2018-02-11T01:21:05.683Z,84.60
2018-02-11T01:23:33.152Z,84.80
2018-02-11T01:26:00.612Z,84.70
2018-02-11T01:28:28.096Z,84.50
2018-02-11T01:30:56.315Z,84.60
2018-02-11T01:33:23.782Z,84.60
2018-02-11T01:35:51.240Z,84.70
2018-02-11T01:38:18.691Z,84.70
2018-02-11T01:40:46.173Z,84.90
2018-02-11T01:43:13.720Z,84.70
2018-02-11T01:45:41.175Z,84.80
2018-02-11T01:48:08.654Z,84.60
2018-02-11T01:50:36.135Z,84.60
2018-02-11T01:53:03.605Z,84.70
2018-02-11T01:55:31.073Z,84.20
2018-02-11T01:57:58.550Z,84.80
2018-02-11T02:00:26.040Z,84.60
2018-02-11T02:02:55.252Z,84.70
2018-02-11T02:05:23.478Z,84.70
2018-02-11T02:07:50.944Z,85.40
2018-02-11T02:10:18.419Z,84.70
2018-02-11T02:12:45.881Z,84.80
2018-02-11T02:15:14.869Z,84.60
2018-02-11T02:17:42.316Z,84.60
2018-02-11T02:20:09.788Z,84.70
2018-02-11T02:22:37.243Z,84.60
2018-02-11T02:25:04.780Z,84.60
2018-02-11T02:27:32.220Z,85.30
2018-02-11T02:30:00.457Z,84.70
2018-02-11T02:32:27.922Z,84.60
2018-02-11T02:34:55.391Z,84.70
2018-02-11T02:37:22.874Z,84.60
2018-02-11T02:39:50.381Z,84.60
2018-02-11T02:42:17.833Z,84.50
2018-02-11T02:44:45.304Z,84.40
2018-02-11T02:47:12.785Z,84.30
2018-02-11T02:49:40.263Z,84.40
2018-02-11T02:52:07.737Z,84.30
2018-02-11T02:54:35.197Z,84.20
2018-02-11T02:57:02.670Z,84.20
2018-02-11T02:59:30.143Z,84.10
2018-02-11T03:01:57.609Z,84.10
2018-02-11T03:04:25.068Z,84.20
2018-02-11T03:06:52.539Z,84.20
2018-02-11T03:09:20.328Z,84.10
2018-02-11T03:11:47.795Z,83.80
2018-02-11T03:14:15.252Z,83.90
2018-02-11T03:16:42.730Z,83.60
2018-02-11T03:19:10.188Z,83.70
2018-02-11T03:21:37.652Z,83.40
2018-02-11T03:24:05.118Z,83.50
2018-02-11T03:26:32.581Z,83.30
2018-02-11T03:29:00.032Z,83.20
2018-02-11T03:31:27.530Z,82.90
2018-02-11T03:33:54.995Z,82.90
2018-02-11T03:36:23.234Z,82.60
2018-02-11T03:38:50.696Z,82.50
2018-02-11T03:41:18.209Z,82.40
2018-02-11T03:43:46.443Z,82.40
2018-02-11T03:46:13.901Z,82.40
2018-02-11T03:48:41.369Z,82.50
2018-02-11T03:51:08.829Z,82.20
2018-02-11T03:53:36.294Z,82.10
2018-02-11T03:56:03.746Z,82.00
2018-02-11T03:58:31.214Z,81.80
2018-02-11T04:00:58.672Z,81.30
2018-02-11T04:03:26.144Z,81.10
2018-02-11T04:05:53.604Z,80.50
2018-02-11T04:08:21.083Z,80.10
2018-02-11T04:10:48.540Z,79.80
2018-02-11T04:13:16.010Z,79.30
2018-02-11T04:15:43.476Z,78.90
2018-02-11T04:18:10.963Z,78.80
2018-02-11T04:20:39.176Z,78.40
2018-02-11T04:23:06.642Z,78.30
2018-02-11T04:25:34.092Z,77.90
2018-02-11T04:28:01.564Z,78.00
2018-02-11T04:30:29.036Z,77.60
2018-02-11T04:32:56.495Z,77.50
2018-02-11T04:35:23.962Z,77.50
2018-02-11T04:37:51.408Z,77.50
2018-02-11T04:40:18.869Z,77.30
2018-02-11T04:42:46.340Z,77.80
2018-02-11T04:45:13.794Z,77.00
2018-02-11T04:47:41.264Z,76.80
2018-02-11T04:50:08.715Z,76.50
2018-02-11T04:52:36.174Z,76.70
2018-02-11T04:55:03.655Z,76.80
2018-02-11T04:57:31.346Z,76.80
2018-02-11T04:59:58.873Z,76.70
2018-02-11T05:02:26.324Z,76.70
2018-02-11T05:04:53.785Z,76.40
2018-02-11T05:07:21.231Z,76.10
2018-02-11T05:09:49.480Z,75.90
2018-02-11T05:12:16.929Z,75.80
2018-02-11T05:14:44.461Z,75.90
2018-02-11T05:17:11.907Z,75.90
2018-02-11T05:19:40.129Z,75.80
2018-02-11T05:22:07.602Z,75.80
2018-02-11T05:24:35.056Z,75.60
2018-02-11T05:27:02.518Z,75.10
2018-02-11T05:29:29.981Z,75.10
2018-02-11T05:31:57.451Z,75.20
2018-02-11T05:34:24.910Z,75.10
2018-02-11T05:36:52.364Z,74.90
2018-02-11T05:39:19.831Z,74.70
2018-02-11T05:41:48.042Z,74.80
2018-02-11T05:44:15.504Z,74.80
2018-02-11T05:46:43.011Z,74.40
2018-02-11T05:49:10.468Z,74.30
2018-02-11T05:51:37.913Z,73.90
2018-02-11T05:54:06.140Z,73.90
2018-02-11T05:56:33.588Z,73.80
2018-02-11T05:59:01.040Z,73.40
2018-02-11T06:01:28.498Z,73.10
2018-02-11T06:03:55.968Z,72.80
2018-02-11T06:06:23.430Z,72.50
2018-02-11T06:08:50.890Z,72.50
2018-02-11T06:11:18.350Z,72.10
2018-02-11T06:13:45.850Z,72.00
2018-02-11T06:16:13.301Z,72.00
2018-02-11T06:18:41.066Z,72.10
2018-02-11T06:21:08.516Z,72.30
2018-02-11T06:23:35.973Z,73.00
2018-02-11T06:26:03.428Z,73.10
2018-02-11T06:28:30.895Z,73.20
2018-02-11T06:30:58.354Z,73.90
2018-02-11T06:33:25.806Z,73.40
2018-02-11T06:35:53.281Z,73.00
2018-02-11T06:38:20.753Z,73.00
2018-02-11T06:40:48.238Z,72.60
2018-02-11T06:43:15.699Z,72.20
2018-02-11T06:45:43.930Z,72.20
2018-02-11T06:48:12.153Z,72.10
2018-02-11T06:50:39.625Z,72.10
2018-02-11T06:53:07.090Z,72.30
2018-02-11T06:55:34.551Z,72.40
2018-02-11T06:58:02.011Z,72.40
2018-02-11T07:00:29.491Z,72.30
2018-02-11T07:02:57.074Z,72.80
2018-02-11T07:05:25.297Z,74.50
2018-02-11T07:07:54.582Z,74.50
2018-02-11T07:10:22.250Z,75.60
2018-02-11T07:12:49.737Z,75.80
2018-02-11T07:15:17.204Z,76.00
2018-02-11T07:17:44.822Z,76.00
2018-02-11T07:20:13.054Z,77.50
2018-02-11T07:22:40.512Z,77.50
2018-02-11T07:25:07.972Z,77.60
2018-02-11T07:27:35.431Z,77.80
2018-02-11T07:30:02.895Z,78.00
2018-02-11T07:32:30.361Z,77.70
2018-02-11T07:34:57.825Z,77.00
2018-02-11T07:37:25.291Z,76.70
2018-02-11T07:39:54.991Z,76.00
2018-02-11T07:42:22.457Z,75.60
2018-02-11T07:44:51.437Z,75.70
2018-02-11T07:47:18.908Z,75.40
2018-02-11T07:49:47.387Z,75.10
2018-02-11T07:52:14.848Z,75.40
2018-02-11T07:54:42.719Z,74.90
2018-02-11T07:57:10.187Z,74.70
2018-02-11T07:59:37.628Z,74.70
2018-02-11T08:02:05.092Z,74.10
2018-02-11T08:04:32.548Z,74.50
2018-02-11T08:07:00.778Z,76.20
2018-02-11T08:09:28.235Z,76.20
2018-02-11T08:14:30.423Z,76.00
2018-02-11T08:16:57.885Z,76.00
2018-02-11T08:19:25.350Z,76.30
2018-02-11T08:21:52.814Z,76.90
2018-02-11T08:24:20.264Z,76.10
2018-02-11T08:26:47.715Z,75.60
2018-02-11T08:29:15.166Z,76.40
2018-02-11T08:31:42.637Z,77.70
2018-02-11T08:34:10.097Z,79.10
2018-02-11T08:36:37.583Z,80.20
2018-02-11T08:39:05.144Z,80.70
2018-02-11T08:41:32.848Z,80.50
2018-02-11T08:44:00.317Z,80.50
2018-02-11T08:46:27.792Z,79.80
2018-02-11T08:48:56.012Z,78.90
2018-02-11T08:51:23.473Z,78.90
2018-02-11T08:53:50.941Z,78.10
2018-02-11T08:56:18.416Z,77.60
2018-02-11T08:58:45.872Z,77.60
2018-02-11T09:01:13.321Z,77.70
2018-02-11T09:03:40.784Z,77.60
2018-02-11T09:06:08.236Z,77.60
2018-02-11T09:08:35.723Z,78.60
2018-02-11T09:11:03.189Z,78.00
2018-02-11T09:13:30.645Z,77.80
2018-02-11T09:15:58.110Z,78.20
2018-02-11T09:18:25.557Z,78.30
2018-02-11T09:20:53.018Z,78.60
2018-02-11T09:23:20.482Z,79.00
2018-02-11T09:25:47.919Z,79.40
2018-02-11T09:28:15.381Z,79.50
2018-02-11T09:30:42.840Z,79.20
2018-02-11T09:33:12.060Z,79.70
2018-02-11T09:35:39.515Z,79.70
2018-02-11T09:38:07.032Z,79.90
2018-02-11T09:40:34.484Z,80.30
2018-02-11T09:43:01.952Z,79.90
2018-02-11T09:45:29.404Z,79.70
2018-02-11T09:47:56.922Z,80.00
2018-02-11T09:50:24.322Z,79.90
2018-02-11T09:52:51.788Z,80.30
2018-02-11T09:55:19.236Z,80.40
2018-02-11T09:57:46.688Z,80.40
2018-02-11T10:00:15.004Z,80.30
2018-02-11T10:02:42.454Z,80.20
2018-02-11T10:05:09.921Z,80.00
2018-02-11T10:07:37.389Z,80.30
2018-02-11T10:10:04.874Z,80.10
2018-02-11T10:12:32.332Z,80.00
2018-02-11T10:14:59.822Z,79.60
2018-02-11T10:17:28.045Z,80.00
2018-02-11T10:19:55.513Z,80.00
2018-02-11T10:22:22.982Z,80.10
2018-02-11T10:24:50.433Z,80.10
2018-02-11T10:27:17.896Z,79.80
2018-02-11T10:29:45.357Z,79.70
2018-02-11T10:32:12.814Z,79.70
2018-02-11T10:34:40.288Z,79.50
2018-02-11T10:37:07.749Z,79.30
2018-02-11T10:39:35.212Z,79.50
2018-02-11T10:42:02.710Z,79.80
2018-02-11T10:44:30.137Z,80.30
2018-02-11T10:46:57.597Z,80.20
2018-02-11T10:49:25.078Z,80.20
2018-02-11T10:51:54.049Z,80.00
2018-02-11T10:54:21.516Z,79.80
2018-02-11T10:56:48.952Z,79.90
2018-02-11T10:59:16.413Z,80.00
2018-02-11T11:01:43.866Z,80.10
2018-02-11T11:04:11.333Z,80.40
2018-02-11T11:06:38.786Z,80.50
2018-02-11T11:09:07.016Z,80.80
2018-02-11T11:11:34.474Z,80.80
2018-02-11T11:14:01.917Z,80.80
2018-02-11T11:16:29.394Z,80.80
2018-02-11T11:18:56.870Z,81.10
2018-02-11T11:21:24.321Z,81.30
2018-02-11T11:23:51.759Z,81.20
2018-02-11T11:26:19.249Z,81.00
2018-02-11T11:28:46.707Z,80.70
2018-02-11T11:31:14.172Z,81.20
2018-02-11T11:33:41.629Z,81.40
2018-02-11T11:36:09.095Z,81.40
2018-02-11T11:38:36.553Z,81.30
2018-02-11T11:41:04.020Z,81.30
2018-02-11T11:43:31.474Z,81.40
2018-02-11T11:45:58.932Z,81.40
2018-02-11T11:48:26.382Z,81.10
2018-02-11T11:50:53.845Z,81.00
2018-02-11T11:53:21.306Z,80.70
2018-02-11T11:55:48.764Z,80.60
2018-02-11T11:58:16.226Z,80.70
2018-02-11T12:00:43.699Z,80.80
2018-02-11T12:03:11.155Z,80.70
2018-02-11T12:05:38.650Z,80.80
2018-02-11T12:08:06.106Z,80.70
2018-02-11T12:10:33.566Z,81.20
2018-02-11T12:13:01.052Z,81.50
2018-02-11T12:15:28.501Z,81.90
2018-02-11T12:17:55.969Z,81.90
2018-02-11T12:20:23.419Z,82.10
2018-02-11T12:22:50.904Z,82.00
2018-02-11T12:25:18.443Z,82.20
2018-02-11T12:27:45.906Z,82.20
2018-02-11T12:30:13.369Z,82.20
2018-02-11T12:32:40.833Z,82.40
2018-02-11T12:35:08.296Z,83.20
2018-02-11T12:37:35.770Z,82.70
2018-02-11T12:40:03.221Z,82.80
2018-02-11T12:42:30.686Z,82.60
2018-02-11T12:44:58.141Z,82.60
2018-02-11T12:47:26.599Z,82.60
2018-02-11T12:49:54.060Z,82.90
2018-02-11T12:52:21.514Z,82.50
2018-02-11T12:54:48.963Z,82.90
2018-02-11T12:57:17.181Z,82.90
2018-02-11T12:59:44.639Z,82.90
2018-02-11T13:02:12.093Z,83.00
2018-02-11T13:04:39.559Z,82.90
2018-02-11T13:07:07.030Z,83.30
2018-02-11T13:09:34.491Z,83.40
2018-02-11T13:12:01.954Z,83.50
2018-02-11T13:14:29.408Z,84.30
2018-02-11T13:16:56.853Z,84.20
2018-02-11T13:19:24.327Z,83.60
2018-02-11T13:21:51.778Z,83.60
2018-02-11T13:24:20.010Z,83.70
2018-02-11T13:26:47.477Z,83.70
2018-02-11T13:29:14.942Z,83.60
2018-02-11T13:31:42.401Z,83.30
2018-02-11T13:34:09.860Z,83.50
2018-02-11T13:36:37.310Z,83.60
2018-02-11T13:39:04.897Z,83.60
2018-02-11T13:41:32.350Z,83.80
2018-02-11T13:44:00.642Z,84.00
2018-02-11T13:46:28.101Z,84.30
2018-02-11T13:48:55.608Z,84.30
2018-02-11T13:51:23.014Z,84.50
2018-02-11T13:53:50.475Z,84.50
2018-02-11T13:56:17.927Z,84.50
2018-02-11T13:58:45.382Z,84.50
2018-02-11T14:01:12.831Z,84.70
2018-02-11T14:03:40.295Z,85.10
2018-02-11T14:06:07.751Z,84.80
2018-02-11T14:08:35.211Z,85.10
2018-02-11T14:11:02.665Z,85.20
2018-02-11T14:13:30.116Z,85.20
2018-02-11T14:15:58.339Z,85.50
2018-02-11T14:18:25.804Z,85.50
2018-02-11T14:20:53.253Z,85.60
2018-02-11T14:23:20.716Z,85.60
2018-02-11T14:25:48.168Z,85.70
2018-02-11T14:28:15.628Z,86.30
2018-02-11T14:30:43.073Z,86.40
2018-02-11T14:33:11.296Z,86.60
2018-02-11T14:35:38.765Z,86.60
2018-02-11T14:38:06.205Z,86.30
2018-02-11T14:40:33.655Z,86.70
2018-02-11T14:43:01.125Z,86.20
2018-02-11T14:45:28.583Z,86.40
2018-02-11T14:47:56.048Z,86.10
2018-02-11T14:50:23.503Z,86.40
2018-02-11T14:52:50.952Z,86.30
2018-02-11T14:55:18.407Z,86.50
2018-02-11T14:57:46.629Z,86.10
2018-02-11T15:00:14.113Z,86.20
2018-02-11T15:02:41.576Z,86.00
2018-02-11T15:05:09.037Z,86.00
2018-02-11T15:07:36.471Z,86.50
2018-02-11T15:10:03.924Z,86.30
2018-02-11T15:12:31.370Z,86.70
2018-02-11T15:14:58.829Z,86.50
2018-02-11T15:17:27.036Z,86.70
2018-02-11T15:19:54.488Z,86.70
2018-02-11T15:22:21.948Z,86.40
2018-02-11T15:24:49.423Z,86.00
2018-02-11T15:27:16.858Z,86.30
2018-02-11T15:29:44.338Z,85.90
2018-02-11T15:32:11.781Z,86.00
2018-02-11T15:34:40.002Z,86.10
2018-02-11T15:37:07.453Z,86.10
2018-02-11T15:39:34.909Z,86.40
2018-02-11T15:42:02.365Z,86.10
2018-02-11T15:44:29.821Z,86.20
2018-02-11T15:46:57.288Z,86.30
2018-02-11T15:49:24.732Z,86.20
2018-02-11T15:51:52.957Z,86.00
2018-02-11T15:54:20.407Z,86.00
2018-02-11T15:56:47.856Z,86.30
2018-02-11T15:59:15.316Z,86.20
2018-02-11T16:01:42.787Z,85.70
2018-02-11T16:04:10.232Z,85.50
2018-02-11T16:06:37.683Z,85.40
2018-02-11T16:09:05.908Z,85.50
2018-02-11T16:11:33.361Z,85.50
2018-02-11T16:14:00.820Z,85.40
2018-02-11T16:16:28.283Z,85.20
2018-02-11T16:18:55.743Z,85.20
2018-02-11T16:21:23.214Z,85.40
2018-02-11T16:23:50.689Z,85.20
2018-02-11T16:26:18.154Z,85.30
2018-02-11T16:28:46.364Z,85.50
2018-02-11T16:31:13.820Z,85.60
2018-02-11T16:33:41.256Z,85.80
2018-02-11T16:36:08.712Z,86.50
2018-02-11T16:38:36.193Z,86.50
2018-02-11T16:41:03.652Z,86.80
2018-02-11T16:43:31.106Z,87.30
2018-02-11T16:45:58.563Z,87.20
2018-02-11T16:48:26.020Z,87.10
2018-02-11T16:50:53.473Z,87.10
2018-02-11T16:53:20.929Z,87.00
2018-02-11T16:55:48.384Z,87.30
2018-02-11T16:58:15.891Z,86.90
2018-02-11T17:00:43.333Z,87.00
2018-02-11T17:03:10.796Z,87.10
2018-02-11T17:05:38.244Z,87.10
2018-02-11T17:08:05.700Z,87.10
2018-02-11T17:10:33.164Z,87.10
2018-02-11T17:13:00.632Z,87.30
2018-02-11T17:15:28.090Z,87.40
2018-02-11T17:17:55.548Z,87.60
2018-02-11T17:20:23.072Z,87.70
2018-02-11T17:22:50.536Z,87.80
2018-02-11T17:25:17.988Z,87.80
2018-02-11T17:27:45.444Z,87.70
2018-02-11T17:30:12.949Z,87.70
2018-02-11T17:32:41.164Z,87.60
2018-02-11T17:35:08.613Z,87.60
2018-02-11T17:37:36.068Z,87.50
2018-02-11T17:40:03.527Z,87.40
2018-02-11T17:42:30.987Z,87.40
2018-02-11T17:44:58.441Z,87.30
2018-02-11T17:47:25.943Z,87.30
2018-02-11T17:49:53.405Z,87.30
2018-02-11T17:52:20.859Z,87.20
2018-02-11T17:54:48.320Z,87.20
2018-02-11T17:57:15.789Z,87.20
2018-02-11T17:59:44.019Z,87.20
2018-02-11T18:02:12.241Z,87.30
2018-02-11T18:04:39.712Z,87.10
2018-02-11T18:07:07.194Z,87.10
2018-02-11T18:09:35.430Z,87.00
2018-02-11T18:12:02.895Z,87.50
2018-02-11T18:14:30.364Z,87.80
2018-02-11T18:16:57.815Z,87.00
2018-02-11T18:19:25.280Z,87.00
2018-02-11T18:21:52.737Z,87.10
2018-02-11T18:24:20.209Z,87.10
2018-02-11T18:26:47.666Z,87.20
2018-02-11T18:29:15.128Z,87.10
2018-02-11T18:31:42.582Z,87.10
2018-02-11T18:34:10.053Z,87.00
2018-02-11T18:36:37.503Z,87.00
2018-02-11T18:39:04.952Z,86.60
2018-02-11T18:41:33.216Z,86.50
2018-02-11T18:44:00.675Z,86.50
2018-02-11T18:46:28.130Z,86.30
2018-02-11T18:48:55.620Z,86.30
2018-02-11T18:51:23.045Z,85.90
2018-02-11T18:53:50.518Z,86.00
2018-02-11T18:56:17.964Z,86.00
2018-02-11T18:58:45.437Z,85.80
2018-02-11T19:01:12.906Z,85.70
2018-02-11T19:03:40.410Z,85.90
2018-02-11T19:06:08.627Z,85.60
2018-02-11T19:08:36.089Z,85.60
2018-02-11T19:11:03.568Z,85.50
2018-02-11T19:13:31.012Z,85.50
2018-02-11T19:15:58.471Z,85.20
2018-02-11T19:18:25.930Z,85.00
2018-02-11T19:20:53.400Z,84.90
2018-02-11T19:23:20.840Z,84.60
2018-02-11T19:25:48.316Z,84.90
2018-02-11T19:28:15.763Z,84.50
2018-02-11T19:30:43.224Z,84.60
2018-02-11T19:33:10.677Z,84.50
2018-02-11T19:35:38.145Z,84.70
2018-02-11T19:38:05.599Z,84.70
2018-02-11T19:40:33.056Z,84.70
2018-02-11T19:43:00.526Z,84.60
2018-02-11T19:45:28.116Z,84.60
2018-02-11T19:47:55.605Z,84.70
2018-02-11T19:50:23.025Z,84.70
2018-02-11T19:52:50.515Z,84.80
2018-02-11T19:55:17.975Z,84.70
2018-02-11T19:57:45.440Z,84.70
2018-02-11T20:00:12.939Z,84.80
2018-02-11T20:02:40.352Z,84.70
2018-02-11T20:05:07.813Z,84.50
2018-02-11T20:07:35.264Z,84.80
2018-02-11T20:10:02.727Z,84.90
2018-02-11T20:12:30.191Z,84.80
2018-02-11T20:14:57.660Z,84.90
2018-02-11T20:17:25.111Z,85.00
2018-02-11T20:19:52.554Z,85.00
2018-02-11T20:22:20.784Z,84.80
2018-02-11T20:24:48.237Z,84.90
2018-02-11T20:27:15.688Z,85.10
2018-02-11T20:29:43.159Z,85.10
2018-02-11T20:32:10.606Z,85.00
2018-02-11T20:34:38.060Z,84.70
2018-02-11T20:37:05.524Z,84.60
2018-02-11T20:39:32.981Z,84.50
2018-02-11T20:42:01.193Z,84.30
2018-02-11T20:44:28.652Z,84.30
2018-02-11T20:46:56.118Z,84.30
2018-02-11T20:49:23.582Z,84.40
2018-02-11T20:51:51.042Z,84.40
2018-02-11T20:54:18.502Z,84.40
2018-02-11T20:56:45.964Z,84.40
2018-02-11T20:59:13.417Z,84.50
2018-02-11T21:01:40.889Z,84.50
2018-02-11T21:04:08.353Z,84.50
2018-02-11T21:06:35.817Z,84.50
2018-02-11T21:09:03.284Z,84.50
2018-02-11T21:11:30.755Z,84.50
2018-02-11T21:13:58.200Z,84.60
2018-02-11T21:16:25.655Z,84.70
2018-02-11T21:18:53.132Z,84.70
2018-02-11T21:21:20.620Z,84.70
2018-02-11T21:23:48.060Z,84.80
2018-02-11T21:26:15.512Z,84.80
2018-02-11T21:28:42.986Z,84.80
2018-02-11T21:31:10.441Z,84.90
2018-02-11T21:33:37.913Z,84.80
2018-02-11T21:36:05.365Z,84.90
2018-02-11T21:38:32.832Z,85.00
2018-02-11T21:41:00.307Z,85.30
2018-02-11T21:43:27.755Z,85.60
2018-02-11T21:45:55.208Z,85.70
2018-02-11T21:48:22.677Z,86.10
2018-02-11T21:50:50.126Z,86.70
2018-02-11T21:53:17.592Z,87.00
2018-02-11T21:55:45.057Z,87.10
2018-02-11T21:58:12.511Z,87.70
2018-02-11T22:00:39.974Z,88.00
2018-02-11T22:03:07.420Z,88.40
2018-02-11T22:05:34.864Z,88.70
2018-02-11T22:08:03.088Z,88.30
2018-02-11T22:10:30.536Z,88.20
2018-02-11T22:12:57.997Z,89.10
2018-02-11T22:15:25.444Z,89.90
2018-02-11T22:17:52.895Z,90.30
2018-02-11T22:20:21.110Z,90.70
2018-02-11T22:22:48.584Z,90.70
2018-02-11T22:25:16.035Z,90.70
2018-02-11T22:27:43.495Z,90.90
2018-02-11T22:30:10.956Z,91.00
2018-02-11T22:32:38.411Z,91.10
2018-02-11T22:35:05.869Z,91.10
2018-02-11T22:37:33.334Z,91.10
2018-02-11T22:40:00.790Z,91.10
2018-02-11T22:42:28.241Z,91.20
2018-02-11T22:44:55.693Z,91.00
2018-02-11T22:47:23.921Z,90.90
2018-02-11T22:49:51.397Z,90.90
2018-02-11T22:52:18.862Z,90.80
2018-02-11T22:54:47.314Z,90.80
2018-02-11T22:57:14.764Z,90.70
2018-02-11T22:59:42.236Z,90.60
2018-02-11T23:02:10.449Z,90.70
2018-02-11T23:04:37.917Z,90.60
2018-02-11T23:07:05.375Z,90.70
2018-02-11T23:09:32.825Z,90.80
2018-02-11T23:12:00.269Z,90.70
2018-02-11T23:14:27.735Z,90.70
2018-02-11T23:16:55.206Z,90.60
2018-02-11T23:19:22.679Z,90.60
2018-02-11T23:21:50.142Z,90.60
2018-02-11T23:24:17.603Z,90.60
2018-02-11T23:26:45.071Z,90.70
2018-02-11T23:29:12.521Z,90.70
2018-02-11T23:31:39.991Z,90.60
2018-02-11T23:34:07.445Z,90.60
2018-02-11T23:36:34.912Z,90.60
2018-02-11T23:39:02.373Z,90.50
2018-02-11T23:41:29.834Z,90.60
2018-02-11T23:43:57.295Z,90.60
2018-02-11T23:46:24.751Z,90.60
2018-02-11T23:48:52.203Z,90.60
2018-02-11T23:51:20.428Z,90.70
2018-02-11T23:53:48.640Z,90.60
2018-02-11T23:56:16.099Z,90.60
2018-02-11T23:58:43.552Z,90.60
